Home > Products > Valid Products > TAF

000
FTUS46 KMTR 281500 AAC
TAFSFO
TAF AMD
KSFO 281529Z 2815/2918 30005KT P6SM BKN013
      TEMPO 2816/2817 SCT013
     FM281700 30010KT P6SM FEW015 SCT200
     FM282000 30015KT P6SM SCT200
     FM290400 30009KT P6SM FEW010 SCT200
     FM291000 29004KT P6SM SCT008 SCT200=



000
FTUS46 KMTR 281500 AAB
TAFSFO
TAF AMD
KSFO 281500Z 2815/2918 30005KT P6SM BKN013
     FM281700 30010KT P6SM FEW010 SCT200
     FM282000 30015KT P6SM SCT200
     FM290400 30009KT P6SM FEW010 SCT200
     FM291000 29004KT P6SM SCT008 SCT200=



000
FTUS46 KMTR 281200 AAA
TAFSFO
TAF AMD
KSFO 281243Z 2813/2918 30005KT P6SM BKN013
     FM281700 30010KT P6SM FEW010 SCT200
     FM282000 30015KT P6SM SCT200
     FM290400 30009KT P6SM FEW010 SCT200
     FM291000 29004KT P6SM SCT008 SCT200=



000
FTUS46 KMTR 281100
TAFSJC
TAF
KSJC 281137Z 2812/2912 VRB03KT P6SM SCT200
     FM282000 31010KT P6SM SCT200
     FM290400 31005KT P6SM SCT200=



000
FTUS46 KMTR 281100
TAFSNS
TAF
KSNS 281137Z 2812/2912 VRB03KT P6SM OVC009
     FM281730 VRB03KT P6SM SCT009 SCT200
     FM281900 29010KT P6SM SCT200
     FM290300 29006KT P6SM BKN008
     FM290400 29004KT P6SM OVC007=



000
FTUS46 KMTR 281100
TAFSFO
TAF
KSFO 281137Z 2812/2918 28008KT P6SM FEW008 BKN150
      TEMPO 2812/2816 BKN008
     FM281800 30010KT P6SM FEW010 SCT200
     FM282000 30015KT P6SM SCT200
     FM290400 30009KT P6SM FEW010 SCT200
     FM291000 29004KT P6SM SCT008 SCT200=



000
FTUS46 KMTR 281100
TAFOAK
TAF
KOAK 281137Z 2812/2918 33006KT P6SM OVC011
     FM281700 29006KT P6SM FEW010 SCT200
     FM282000 29012KT P6SM SCT200
     FM290400 31006KT P6SM FEW010 SCT200
     FM290900 29005KT P6SM OVC010=



000
FTUS46 KMTR 281100
TAFMRY
TAF
KMRY 281137Z 2812/2912 VRB03KT P6SM OVC006
     FM281800 27006KT P6SM SCT008 SCT200
     FM281900 29008KT P6SM SCT200
     FM290200 24005KT P6SM BKN008
     FM290400 24004KT P6SM OVC007=



000
FTUS46 KMTR 281100
TAFSTS
TAF
KSTS 281137Z 2812/2912 15006KT P6SM OVC005
     FM281630 00000KT P6SM SCT006
     FM281800 17010KT P6SM SKC
     FM290700 16004KT P6SM OVC007=



000
FTUS46 KMTR 281000 AAB
TAFOAK
TAF AMD
KOAK 281030Z 2811/2912 33006KT P6SM BKN009
     FM281700 29006KT P6SM FEW010 SCT200
     FM282000 29012KT P6SM SCT200
     FM290400 31006KT P6SM SCT200=



000
FTUS46 KMTR 280900 AAA
TAFOAK
TAF AMD
KOAK 280930Z 2810/2912 32007KT P6SM FEW008
     FM281100 27005KT P6SM BKN010 BKN150
     FM281700 29006KT P6SM FEW010 SCT200
     FM282000 29012KT P6SM SCT200
     FM290400 31006KT P6SM SCT200=



000
FTUS46 KMTR 280900 AAA
TAFSFO
TAF AMD
KSFO 280903Z 2809/2912 30008KT P6SM FEW008
     FM281100 27005KT P6SM SCT010 BKN150
     FM281800 30010KT P6SM FEW010 SCT200
     FM282000 30015KT P6SM SCT200
     FM290400 30009KT P6SM SCT200=



000
FTUS46 KMTR 280700 AAA
TAFSTS
TAF AMD
KSTS 280730Z 2808/2906 15006KT P6SM BKN005
     FM281300 00000KT 2SM BR OVC004
     FM281600 00000KT P6SM SCT006
     FM281800 17010KT P6SM SKC=



000
FTUS46 KMTR 280500
TAFOAK
TAF
KOAK 280520Z 2806/2912 29006KT P6SM FEW010 SCT150
     FM280900 27005KT P6SM BKN010 BKN150
     FM281700 29006KT P6SM FEW010 SCT200
     FM282000 29012KT P6SM SCT200
     FM290400 31006KT P6SM SCT200=



000
FTUS46 KMTR 280500
TAFSFO
TAF
KSFO 280520Z 2806/2912 27012KT P6SM FEW010 SCT150
     FM281000 27005KT P6SM BKN010 BKN150
     FM281800 30010KT P6SM FEW010 SCT200
     FM282000 30015KT P6SM SCT200
     FM290400 30009KT P6SM SCT200=



000
FTUS46 KMTR 280500
TAFSTS
TAF
KSTS 280520Z 2806/2906 VRB03KT P6SM SCT010
     FM280800 VRB03KT P6SM OVC008
     FM281300 00000KT 2SM BR OVC004
     FM281600 00000KT P6SM SCT006
     FM281800 17010KT P6SM SKC=



000
FTUS46 KMTR 280500
TAFMRY
TAF
KMRY 280520Z 2806/2906 20003KT P6SM OVC005
     FM281700 27006KT P6SM SCT008 SCT200
     FM281900 29008KT P6SM SCT200
     FM290300 24005KT P6SM BKN008=



000
FTUS46 KMTR 280500
TAFSJC
TAF
KSJC 280520Z 2806/2906 31005KT P6SM SCT200
     FM282000 31010KT P6SM SCT200
     FM290400 31005KT P6SM SCT200=



000
FTUS46 KMTR 280500
TAFSNS
TAF
KSNS 280520Z 2806/2906 31005KT P6SM OVC007
     FM281200 VRB03KT 4SM BR OVC004
     FM281700 VRB03KT P6SM SCT008 SCT200
     FM281900 29010KT P6SM SCT200
     FM290400 29006KT P6SM BKN008=



000
FTUS46 KMTR 280200 AAA
TAFSFO
TAF AMD
KSFO 280250Z 2803/2906 30016G22KT P6SM FEW011 SCT120
     FM280400 27010KT P6SM FEW010 SCT150
     FM281000 27005KT P6SM BKN010 BKN150
     FM281800 30010KT P6SM FEW010 SCT200
     FM282000 30015KT P6SM SCT200
     FM290400 30009KT P6SM SCT200=



000
FTUS46 KMTR 272300
TAFSJC
TAF
KSJC 272336Z 2800/2824 31012KT P6SM SCT150 SCT200
     FM280400 31005KT P6SM SCT200
     FM282000 31010KT P6SM SCT200=



000
FTUS46 KMTR 272300
TAFSFO
TAF
KSFO 272336Z 2800/2906 30016G24KT P6SM FEW011 SCT120
     FM280400 27010KT P6SM FEW010 SCT150
     FM281000 27005KT P6SM BKN010 BKN150
     FM281800 30010KT P6SM FEW010 SCT200
     FM282000 30015KT P6SM SCT200
     FM290400 30009KT P6SM SCT200=



000
FTUS46 KMTR 272300
TAFSNS
TAF
KSNS 272336Z 2800/2824 29012KT P6SM SCT150
     FM280300 29008KT P6SM SCT010
     FM280500 31005KT P6SM OVC007
     FM281200 VRB03KT 4SM BR OVC004
     FM281700 VRB03KT P6SM SCT008 SCT200
     FM281900 29010KT P6SM SCT200=



000
FTUS46 KMTR 272300
TAFMRY
TAF
KMRY 272336Z 2800/2824 25010KT P6SM SCT150
     FM280300 24005KT P6SM BKN007
     FM280600 20003KT P6SM OVC004
     FM281700 27006KT P6SM SCT008 SCT200
     FM281900 29008KT P6SM SCT200=



000
FTUS46 KMTR 272300
TAFSTS
TAF
KSTS 272336Z 2800/2824 17010KT P6SM SCT100 SCT200
     FM280400 VRB03KT P6SM SCT200
     FM280800 VRB03KT P6SM OVC008
     FM281300 00000KT 2SM BR OVC004
     FM281600 00000KT P6SM SCT006
     FM281800 17010KT P6SM SKC=



000
FTUS46 KMTR 272300
TAFOAK
TAF
KOAK 272336Z 2800/2906 29014KT P6SM SCT120
     FM280400 29006KT P6SM FEW010 SCT150
     FM280900 27005KT P6SM BKN010 BKN150
     FM281800 29006KT P6SM FEW010 SCT200
     FM282000 29012KT P6SM SCT200
     FM290400 31006KT P6SM SCT200=



000
FTUS46 KMTR 272100 AAA
TAFSFO
TAF AMD
KSFO 272103Z 2721/2824 30016G24KT P6SM VCSH FEW011 SCT200
     FM280400 27010KT P6SM FEW010 SCT150
     FM281000 27005KT P6SM BKN010 BKN150
     FM281800 30010KT P6SM FEW010 SCT200=



000
FTUS46 KMTR 271700
TAFSTS
TAF
KSTS 271720Z 2718/2818 18007KT P6SM SCT100 SCT200
     FM280400 VRB03KT P6SM SCT200
     FM280800 VRB03KT P6SM OVC008
     FM281300 00000KT 2SM BR OVC004=



000
FTUS46 KMTR 271700
TAFSNS
TAF
KSNS 271720Z 2718/2818 VRB03KT P6SM SCT010 BKN200
     FM272000 29012KT P6SM SCT150
     FM280400 29008KT P6SM SCT010
     FM280500 31005KT P6SM OVC007
     FM281200 VRB03KT 4SM BR OVC004=



000
FTUS46 KMTR 271700
TAFSFO
TAF
KSFO 271720Z 2718/2824 30006KT P6SM FEW010 SCT200
     FM272000 27018G24KT P6SM SCT200
     FM280400 27010KT P6SM FEW010 SCT150
     FM281000 27005KT P6SM BKN010 BKN150
     FM281800 30010KT P6SM FEW010 SCT200=



000
FTUS46 KMTR 271700
TAFSJC
TAF
KSJC 271720Z 2718/2818 30007KT P6SM SCT150 BKN200
     FM272000 31012KT P6SM SCT150 SCT200
     FM280400 31005KT P6SM SCT200=



000
FTUS46 KMTR 271700
TAFOAK
TAF
KOAK 271720Z 2718/2824 30008KT P6SM FEW010 SCT150 SCT200
     FM272100 29014KT P6SM SCT200
     FM280400 29006KT P6SM FEW010 SCT150
     FM280900 27005KT P6SM BKN010 BKN150
     FM281800 29010KT P6SM FEW010 SCT200=



000
FTUS46 KMTR 271700
TAFMRY
TAF
KMRY 271720Z 2718/2818 30006KT P6SM SCT012 BKN200
     FM272100 25010KT P6SM SCT150
     FM280300 24005KT P6SM BKN007
     FM280600 20003KT P6SM OVC004=



000
FTUS46 KMTR 271500 AAA
TAFSFO
TAF AMD
KSFO 271502Z 2715/2818 30008KT P6SM VCSH SCT008 SCT100 BKN200
     FM271700 27005KT P6SM FEW010 SCT200
     FM272000 27018G24KT P6SM SCT200
     FM280400 27010KT P6SM FEW010 SCT150
     FM281000 27005KT P6SM BKN010 BKN150=



000
FTUS46 KMTR 271300 AAA
TAFMRY
TAF AMD
KMRY 271330Z 2714/2812 00000KT P6SM SCT007
     FM271800 25006KT P6SM SCT012 BKN200
     FM272100 25010KT P6SM SCT150
     FM280300 24005KT P6SM BKN007
     FM280600 20003KT P6SM OVC004=



000
FTUS46 KMTR 271100
TAFSFO
TAF
KSFO 271123Z 2712/2818 27008KT P6SM SCT007 BKN200
     FM271700 27005KT P6SM FEW010 SCT200
     FM272000 27018G24KT P6SM SCT200
     FM280400 27010KT P6SM FEW010 SCT150
     FM281000 27005KT P6SM BKN010 BKN150=



000
FTUS46 KMTR 271100
TAFOAK
TAF
KOAK 271123Z 2712/2818 30006KT P6SM SCT010 BKN150
     FM271800 29006KT P6SM FEW010 SCT150
     FM272100 29014KT P6SM SCT200
     FM280400 29006KT P6SM FEW010 SCT150
     FM280900 27005KT P6SM BKN010 BKN150=



000
FTUS46 KMTR 271100
TAFSTS
TAF
KSTS 271123Z 2712/2812 16003KT P6SM BKN150
     FM271800 18007KT P6SM SCT150
     FM280400 VRB03KT P6SM SCT200
     FM280800 VRB03KT P6SM OVC008=



000
FTUS46 KMTR 271100
TAFSNS
TAF
KSNS 271123Z 2712/2812 26007KT P6SM OVC008
     FM271800 VRB03KT P6SM SCT010 BKN200
     FM272000 29012KT P6SM SCT150
     FM280400 29006KT P6SM SCT010
     FM280500 31005KT P6SM OVC007=



000
FTUS46 KMTR 271100
TAFSJC
TAF
KSJC 271123Z 2712/2812 29005KT P6SM BKN200
     FM272000 31010KT P6SM SCT200
     FM280400 31005KT P6SM SCT200=



000
FTUS46 KMTR 271100
TAFMRY
TAF
KMRY 271123Z 2712/2812 VRB03KT P6SM OVC005
     FM271700 VRB03KT P6SM BKN008
     FM271800 25006KT P6SM SCT012 BKN200
     FM272100 25010KT P6SM SCT150
     FM280300 24005KT P6SM BKN007
     FM280600 20003KT P6SM OVC004=



000
FTUS46 KMTR 271000 AAA
TAFSNS
TAF AMD
KSNS 271032Z 2711/2806 00000KT P6SM FEW009
     FM271200 VRB03KT P6SM OVC008
     FM271800 VRB03KT P6SM SCT010 BKN200
     FM272000 29012KT P6SM SCT150
     FM280400 29006KT P6SM SCT010=



000
FTUS46 KMTR 270900 AAA
TAFOAK
TAF AMD
KOAK 270930Z 2710/2812 32006KT P6SM SCT150 BKN200
     FM271200 30006KT P6SM SCT010 BKN200
     FM271800 29006KT P6SM FEW010 SCT200
     FM272100 29014KT P6SM SCT200
     FM280400 29006KT P6SM FEW010 SCT150=



000
FTUS46 KMTR 270900 AAA
TAFSFO
TAF AMD
KSFO 270902Z 2709/2812 29010KT P6SM FEW005 BKN200
     FM271200 28008KT P6SM SCT010 BKN200
     FM271700 27005KT P6SM FEW010 SCT200
     FM272000 27018G24KT P6SM SCT200
     FM280400 27010KT P6SM FEW010 SCT150=



000
FTUS46 KMTR 270500
TAFSNS
TAF
KSNS 270524Z 2706/2806 30009KT P6SM BKN008
     FM271000 VRB03KT 5SM BR OVC005
     FM271800 VRB03KT P6SM SCT010 BKN200
     FM272000 29012KT P6SM SCT150
     FM280400 29006KT P6SM SCT010=



000
FTUS46 KMTR 270500
TAFOAK
TAF
KOAK 270524Z 2706/2812 30006KT P6SM SKC
     FM270900 31005KT P6SM BKN010
     FM271800 29006KT P6SM FEW010 SCT200
     FM272100 29014KT P6SM SCT200
     FM280400 29006KT P6SM FEW010 SCT150=



000
FTUS46 KMTR 270500
TAFSTS
TAF
KSTS 270524Z 2706/2806 16004KT P6SM SKC
     FM271000 VRB03KT P6SM BKN008
     FM271200 00000KT 2SM BR OVC004
     FM271800 18007KT P6SM SCT200
     FM280400 VRB03KT P6SM SCT200=



000
FTUS46 KMTR 270500
TAFSJC
TAF
KSJC 270524Z 2706/2806 30005KT P6SM SKC
     FM272000 31010KT P6SM SCT200
     FM280400 31005KT P6SM SCT200=



000
FTUS46 KMTR 270500
TAFSFO
TAF
KSFO 270524Z 2706/2812 29012KT P6SM FEW010
     FM271200 28008KT P6SM BKN010
     FM271700 27005KT P6SM FEW010 SCT200
     FM272000 27018G24KT P6SM SCT200
     FM280400 27010KT P6SM FEW010 SCT150=



000
FTUS46 KMTR 270500
TAFMRY
TAF
KMRY 270524Z 2706/2806 24006KT P6SM OVC007
     FM271000 VRB03KT 4SM BR OVC004
     FM271700 VRB03KT P6SM BKN008
     FM271900 25006KT P6SM SCT012 BKN200
     FM272100 25010KT P6SM SCT150
     FM280300 24005KT P6SM BKN007=



000
FTUS46 KMTR 270200 AAA
TAFSFO
TAF AMD
KSFO 270257Z 2703/2806 30015KT P6SM FEW011
     FM270400 28012KT P6SM FEW010
     FM271200 27008KT P6SM BKN010
     FM271700 27005KT P6SM FEW010 SCT200
     FM272000 27018G24KT P6SM SCT200
     FM280400 27010KT P6SM FEW010 SCT150=



000
FTUS46 KMTR 262300
TAFOAK
TAF
KOAK 262329Z 2700/2806 30015KT P6SM SKC
     FM270400 30006KT P6SM SKC
     FM270900 31005KT P6SM BKN010
     FM271800 29006KT P6SM FEW010 SCT200
     FM272100 29014KT P6SM SCT200
     FM280400 29006KT P6SM FEW010 SCT150=



000
FTUS46 KMTR 262300
TAFSTS
TAF
KSTS 262329Z 2700/2724 17010KT P6SM SKC
     FM270400 16004KT P6SM SKC
     FM270800 VRB03KT P6SM BKN008
     FM271200 00000KT 2SM BR OVC004
     FM271800 18007KT P6SM SCT200=



000
FTUS46 KMTR 262300
TAFSFO
TAF
KSFO 262329Z 2700/2806 30019G25KT P6SM FEW011
     FM270400 28012KT P6SM FEW010
     FM271200 27008KT P6SM BKN010
     FM271700 27005KT P6SM FEW010 SCT200
     FM272000 27018G24KT P6SM SCT200
     FM280400 27010KT P6SM FEW010 SCT150=



000
FTUS46 KMTR 262300
TAFMRY
TAF
KMRY 262329Z 2700/2724 25010KT P6SM FEW008
     FM270300 24006KT P6SM BKN007
     FM271000 VRB03KT 4SM BR OVC004
     FM271700 VRB03KT P6SM BKN008
     FM271900 25006KT P6SM SCT012 BKN200
     FM272100 25010KT P6SM SCT150=



000
FTUS46 KMTR 262300
TAFSJC
TAF
KSJC 262329Z 2700/2724 31010KT P6SM SKC
     FM270400 30005KT P6SM SKC
     FM272000 31010KT P6SM SCT200=



000
FTUS46 KMTR 262300
TAFSNS
TAF
KSNS 262329Z 2700/2724 29014KT P6SM SKC
     FM270300 30009KT P6SM BKN008
     FM271000 VRB03KT 5SM BR OVC005
     FM271800 VRB03KT P6SM SCT010 BKN200
     FM272000 29012KT P6SM SCT150=



000
FTUS46 KMTR 262100 AAA
TAFSFO
TAF AMD
KSFO 262101Z 2621/2724 30017KT P6SM FEW011
     FM270400 28008KT P6SM FEW010
     FM271200 27005KT P6SM BKN010
     FM271700 30008KT P6SM FEW010 SCT200=



000
FTUS46 KMTR 261700
TAFSTS
TAF
KSTS 261720Z 2618/2718 VRB03KT P6SM SKC
     FM262100 17010KT P6SM SKC
     FM270400 16004KT P6SM SKC
     FM270800 VRB03KT P6SM BKN008
     FM271200 00000KT 2SM BR OVC004=



000
FTUS46 KMTR 261700
TAFSJC
TAF
KSJC 261720Z 2618/2718 VRB04KT P6SM SKC
     FM262100 31010KT P6SM SKC
     FM270400 30005KT P6SM SKC=



000
FTUS46 KMTR 261700
TAFOAK
TAF
KOAK 261720Z 2618/2724 30007KT P6SM SKC
     FM262100 30015KT P6SM SKC
     FM270400 30006KT P6SM SKC
     FM270800 31005KT P6SM BKN010
     FM271700 29006KT P6SM FEW010 SCT200=



000
FTUS46 KMTR 261700
TAFMRY
TAF
KMRY 261720Z 2618/2718 26006KT P6SM SKC
     FM262000 25010KT P6SM SKC
     FM270300 24006KT P6SM BKN007
     FM271000 VRB03KT 4SM BR OVC004
     FM271700 VRB03KT P6SM BKN008=



000
FTUS46 KMTR 261700
TAFSNS
TAF
KSNS 261720Z 2618/2718 VRB04KT P6SM SKC
     FM262100 29014KT P6SM SKC
     FM270300 30009KT P6SM BKN006
     FM271000 VRB03KT 4SM BR OVC005=



000
FTUS46 KMTR 261700
TAFSFO
TAF
KSFO 261720Z 2618/2724 31007KT P6SM FEW010
     FM262100 29017KT P6SM SKC
     FM270400 28008KT P6SM FEW010
     FM271200 27005KT P6SM BKN010
     FM271700 30008KT P6SM FEW010 SCT200=



000
FTUS46 KMTR 261500 AAA
TAFMRY
TAF AMD
KMRY 261508Z 2615/2712 VRB03KT P6SM FEW005
     FM261700 26006KT P6SM FEW007
     FM262000 25010KT P6SM SKC
     FM270300 24006KT P6SM BKN006=



000
FTUS46 KMTR 261500 AAA
TAFSFO
TAF AMD
KSFO 261507Z 2615/2718 28007KT P6SM FEW006
     FM262100 29017KT P6SM SKC
     FM270400 28008KT P6SM FEW010
     FM271000 27005KT P6SM SCT008=



000
FTUS46 KMTR 261100
TAFSNS
TAF
KSNS 261136Z 2612/2712 VRB03KT 5SM BR OVC006
     FM261600 VRB04KT P6SM SKC
     FM262100 29014KT P6SM SKC
     FM270300 30009KT P6SM BKN006=



000
FTUS46 KMTR 261100
TAFOAK
TAF
KOAK 261136Z 2612/2718 30005KT P6SM FEW008
     FM262100 30013KT P6SM SKC
     FM270400 30006KT P6SM SKC
     FM270800 31005KT P6SM BKN008=



000
FTUS46 KMTR 261100
TAFSJC
TAF
KSJC 261136Z 2612/2712 VRB04KT P6SM SKC
     FM262100 31010KT P6SM SKC
     FM270400 30005KT P6SM SKC=



000
FTUS46 KMTR 261100
TAFSFO
TAF
KSFO 261136Z 2612/2718 28009KT P6SM SKC
     FM261500 28005KT P6SM FEW010
     FM262100 29017KT P6SM SKC
     FM270400 28008KT P6SM FEW010
     FM271000 27005KT P6SM SCT008=



000
FTUS46 KMTR 261100
TAFSTS
TAF
KSTS 261136Z 2612/2712 VRB03KT P6SM SKC
     FM262100 17010KT P6SM SKC
     FM270400 16004KT P6SM SKC
     FM270800 VRB03KT P6SM BKN008=



000
FTUS46 KMTR 261100
TAFMRY
TAF
KMRY 261136Z 2612/2712 VRB03KT 5SM BR OVC005
     FM261700 26006KT P6SM FEW007
     FM262100 25010KT P6SM SKC
     FM270300 24006KT P6SM BKN006=



000
FTUS46 KMTR 261000 AAB
TAFMRY
TAF AMD
KMRY 261016Z 2610/2706 VRB03KT 5SM BR OVC005
     FM261700 26008KT P6SM FEW007
     FM270300 24006KT P6SM BKN006=



000
FTUS46 KMTR 260900 AAA
TAFSNS
TAF AMD
KSNS 260911Z 2609/2706 30004KT 5SM BR OVC006
     FM261000 VRB03KT 4SM BR OVC003
     FM261600 VRB06KT P6SM SKC
     FM262100 29014KT P6SM SKC
     FM270300 30009KT P6SM BKN006=



000
FTUS46 KMTR 260900 AAA
TAFSFO
TAF AMD
KSFO 260908Z 2609/2712 28006KT P6SM FEW010
     FM262100 29017KT P6SM SKC
     FM270400 28008KT P6SM FEW007
     FM271000 27005KT P6SM BKN008=



000
FTUS46 KMTR 260500 AAA
TAFMRY
TAF AMD
KMRY 260546Z 2606/2706 VRB03KT 6SM BR SCT005
      TEMPO 2606/2608 BKN005
     FM260800 VRB03KT 6SM BR OVC004
     FM261000 VRB03KT 4SM BR OVC002
     FM261600 28005KT P6SM BKN005
     FM261800 26008KT P6SM FEW007
     FM270300 24006KT P6SM BKN006=



000
FTUS46 KMTR 260500
TAFSJC
TAF
KSJC 260522Z 2606/2706 VRB03KT P6SM SKC
     FM262100 31010KT P6SM SKC
     FM270400 30005KT P6SM SKC=



000
FTUS46 KMTR 260500
TAFSNS
TAF
KSNS 260522Z 2606/2706 29006KT 6SM HZ SCT006
     FM260800 30004KT 6SM BR OVC004
     FM261000 VRB03KT 4SM BR OVC003
     FM261600 VRB06KT P6SM SKC
     FM262100 29014KT P6SM SKC
     FM270300 30009KT P6SM BKN006=



000
FTUS46 KMTR 260500
TAFOAK
TAF
KOAK 260522Z 2606/2712 30007KT P6SM SKC
     FM261200 26004KT P6SM SCT007
      TEMPO 2613/2616 BKN006
     FM262100 30013KT P6SM SKC
     FM270400 30006KT P6SM SKC
     FM270800 31005KT P6SM BKN008=



000
FTUS46 KMTR 260500
TAFSFO
TAF
KSFO 260522Z 2606/2712 30008KT P6SM SKC
     FM260900 28006KT P6SM FEW006
     FM261900 30010KT P6SM SKC
     FM262100 29017KT P6SM SKC
     FM270400 28008KT P6SM FEW007
     FM271000 27005KT P6SM BKN008=



000
FTUS46 KMTR 260500
TAFSTS
TAF
KSTS 260522Z 2606/2706 16003KT P6SM SKC
     FM261200 00000KT P6SM SCT005
      TEMPO 2613/2615 4SM BR BKN003
     FM262100 17010KT P6SM SKC
     FM270400 16005KT P6SM SKC=



000
FTUS46 KMTR 260500
TAFMRY
TAF
KMRY 260522Z 2606/2706 23004KT P6SM SCT005
     FM260800 VRB03KT P6SM OVC004
     FM261000 VRB03KT 4SM BR OVC002
     FM261700 28005KT P6SM BKN005
     FM261900 26008KT P6SM FEW007
     FM270300 24006KT P6SM BKN006=



000
FTUS46 KMTR 260300 AAA
TAFMRY
TAF AMD
KMRY 260305Z 2603/2624 23006KT P6SM SKC
     FM260600 22004KT P6SM SCT005
     FM260800 VRB03KT P6SM OVC004
     FM261000 VRB03KT 4SM BR OVC002
     FM261700 28005KT P6SM BKN005
     FM261900 26007KT P6SM FEW007=



000
FTUS46 KMTR 260300 AAA
TAFSFO
TAF AMD
KSFO 260302Z 2603/2706 29010KT P6SM FEW200
     FM260800 28006KT P6SM FEW008
     FM261900 30010KT P6SM SKC
     FM262100 29017KT P6SM SKC
     FM270400 28008KT P6SM FEW008=



000
FTUS46 KMTR 252300
TAFSNS
TAF
KSNS 252322Z 2600/2624 29014KT P6SM SKC
     FM260300 30008KT P6SM FEW005
     FM260500 30006KT P6SM OVC004
     FM261000 VRB03KT 5SM BR OVC003
     FM261600 VRB06KT P6SM SKC
     FM262100 29014KT P6SM SKC=



000
FTUS46 KMTR 252300
TAFSTS
TAF
KSTS 252322Z 2600/2624 19010KT P6SM SKC
     FM260400 16003KT P6SM SKC
     FM262100 17010KT P6SM SKC=



000
FTUS46 KMTR 252300
TAFMRY
TAF
KMRY 252322Z 2600/2624 25009KT P6SM FEW007
     FM260300 24007KT P6SM SCT005
     FM260400 25005KT P6SM OVC004
     FM261000 VRB03KT 4SM BR OVC002
     FM261700 28005KT P6SM BKN005
     FM261900 26007KT P6SM FEW007=



000
FTUS46 KMTR 252300
TAFSJC
TAF
KSJC 252322Z 2600/2624 30011KT P6SM SKC
     FM260400 31006KT P6SM SKC
     FM260800 VRB03KT P6SM SKC
     FM262100 31010KT P6SM SKC=



000
FTUS46 KMTR 252300
TAFOAK
TAF
KOAK 252322Z 2600/2706 29013KT P6SM SKC
     FM260400 31005KT P6SM SKC
     FM261200 26004KT P6SM SCT008
      TEMPO 2613/2616 BKN008
     FM262100 30013KT P6SM SKC
     FM270400 30006KT P6SM SKC=



000
FTUS46 KMTR 252300
TAFSFO
TAF
KSFO 252322Z 2600/2706 29018KT P6SM FEW200
     FM260400 29008KT P6SM FEW008
     FM261100 27005KT P6SM SCT008
     FM261900 30010KT P6SM SKC
     FM262100 29017KT P6SM SKC
     FM270400 28008KT P6SM FEW008=



000
FTUS46 KMTR 252100 AAA
TAFSFO
TAF AMD
KSFO 252109Z 2521/2624 30016KT P6SM FEW200
     FM260400 29008KT P6SM FEW010
     FM261800 30010KT P6SM SKC=



000
FTUS46 KMTR 251700
TAFSNS
TAF
KSNS 251720Z 2518/2618 VRB03KT P6SM SKC
     FM252100 29012KT P6SM SKC
     FM260400 30005KT P6SM FEW005
     FM260900 VRB03KT P6SM OVC004
      TEMPO 2610/2614 4SM BR=



000
FTUS46 KMTR 251700
TAFSJC
TAF
KSJC 251720Z 2518/2618 VRB03KT P6SM SKC
     FM252000 30010KT P6SM SKC
     FM260400 VRB04KT P6SM SKC=



000
FTUS46 KMTR 251700
TAFSFO
TAF
KSFO 251720Z 2518/2624 01005KT P6SM SKC
     FM252200 30018KT P6SM SKC
     FM260400 29005KT P6SM FEW010
     FM261800 30010KT P6SM SKC=



000
FTUS46 KMTR 251700
TAFMRY
TAF
KMRY 251720Z 2518/2618 VRB03KT P6SM SKC
     FM251900 29010KT P6SM SKC
     FM260400 24005KT P6SM SCT005
     FM260700 VRB03KT P6SM OVC004
      TEMPO 2612/2615 3SM BR=



000
FTUS46 KMTR 251700
TAFSTS
TAF
KSTS 251720Z 2518/2618 VRB03KT P6SM SKC
     FM252000 19010KT P6SM SKC
     FM260400 VRB03KT P6SM SKC=



000
FTUS46 KMTR 251700
TAFOAK
TAF
KOAK 251720Z 2518/2624 26006KT P6SM SKC
     FM252100 30012KT P6SM SKC
     FM260400 31005KT P6SM SKC=



    US Dept of Commerce
    National Oceanic and Atmospheric Administration
    National Weather Service
    1325 East West Highway
    Silver Spring, MD 20910
    Page Author: NWS Internet Services Team
Disclaimer
Information Quality
Credits
Glossary
Privacy Policy
Freedom of Information Act (FOIA)
About Us
Career Opportunities